Capitol Logistics 2854


KORD
Chicago O'Hare International Airport
Chicago, Illinois, US
CYHZ
Robert L. Stanfield International Airport
Halifax, , CA

Activity Log

Date Flight Route Aircraft Duration
06/04/2020 CPX2854 EBAKE PMM J547 FNT Q818 DERLO Q913 CABCI Q29 EBONY FUNDY3 B77L 2h 31m

Route Details

Aircraft Information
Primary: Boeing 747-400BCF
Backup: Boeing 777-200LRF
Route Data
Distance: 1075nm
Sched. Duration: 2h 25m
Avg. Duration: 2h 31m (+6m)
Times Flown: 1
Recm'd Route: EBAKE PMM J547 FNT Q818 DERLO Q913 CABCI Q29 EBONY FUNDY3
Planned Altitude: 37,000ft
Origin Wx: KORD 200151Z 36010KT 6SM BR SCT009 BKN015 OVC020 04/02 A3022 RMK AO2 SLP237 T00440022 $
Dest. Wx: CYHZ 200200Z 16005KT 1/4SM R23/2800FT/N R14/3000FT/N FG VV001 13/13 A3036 RMK FG8 SLP285
Notes: OPERATED FOR SKYLEASE CARGO

Financial History
Total Freight: 95,120lbs
Average Load: 95,120lbs/flt
Fuel Used: 34,136lbs
Avg. Fuel Used: 34,136lbs/flt
Fuel Expense: $40,963
Avg. Fuel Expense: $40,963
Avg. Fuel Cost: $1.20/lbs
Total Gross Income: $160,753
Pilot Pay: $229
Total Expenses: $17,413
Total Revenue: $101,847
Average Revenue: $160,752.80